Captiva, FL (33924)

9:10 PM EST on November 24, 2014 (GMT -0500)
KFLST.JA1 | Change Station
CLOSE
Current Station
Personal Weather Station
Location: St. James City, FL
Elevation: 5 ft
Nearby Weather Stations

Elev 5 ft 26.50 °N, 82.08 °W | Updated 9 minutes ago

Partly Cloudy
Partly Cloudy
72.9 °F
Feels Like 71 °F
N
0.0
Wind Variable Wind from North
Gusts 0.0 mph

Today
High -- | Low -- °F
--% Chance of Precip.
Yesterday
High -- | Low -- °F
Precip. -- in
6:54 AM 5:36 PM
Waxing Crescent, 8% visible
Pressure 30.01 in
Visibility 10.0 miles
Clouds Clear
Heat Index 71 °F
Dew Point 69 °F
Humidity 88%
Rainfall -999.00 in
Snow Depth Not available.
UV 0 out of 12
Pollen 1.60 out of 12
Air Quality Not available.
Flu Activity Not available.
METAR KFMY 250153Z 00000KT 10SM CLR 24/21 A3000 RMK AO2 SLP162 T02390211

More Conditions Fewer Conditions

Pressure 30.01 in
Visibility 10.0 miles
Clouds Clear
Heat Index 71 °F
Dew Point 69 °F
Humidity 88%
Rainfall -999.00 in
Snow Depth Not available.
UV 0 out of 12
Pollen 1.60 out of 12
Air Quality Not available.
Flu Activity Not available.
METAR KFMY 250153Z 00000KT 10SM CLR 24/21 A3000 RMK AO2 SLP162 T02390211

More Conditions Fewer Conditions

10-Day Weather Forecast

Almanac

Astronomy

Nov. 24, 2014 Rise Set
Actual Time
Civil Twilight
Nautical Twilight
Astronomical Twilight
Moon
Length of Visible Light
Length of Day
Tomorrow will be .
, % of the Moon is Illuminated

Today's Extremes

State Highs State Lows

Community

WunderPhotos

Upload Photos

1,773,460 photos uploaded!

WunderBlogs® & News

Nearby

Air Quality

  Air Quality AQ Index Pollutant
Not available.

Snow Depth

Station Depth Elevation

Earthquake Activity

City Distance Mag. Time & Date
Minimum magnitude displayed is 2.5.

Coastal Water Temperatures

Place Temperature

Nearby Weather Stations